createdAt,value
2024-02-09T04:40:05.575Z,99361.97
2024-02-09T04:43:08.665Z,99354.25
2024-02-09T04:46:11.211Z,99354.50
2024-02-09T04:49:13.839Z,99365.72
2024-02-09T04:52:16.492Z,99365.97
2024-02-09T04:55:19.305Z,99365.22
2024-02-09T04:58:22.139Z,99363.22
2024-02-09T05:01:33.334Z,99352.75
2024-02-09T05:04:37.301Z,99353.25
2024-02-09T05:07:40.003Z,99354.47
2024-02-09T05:10:42.570Z,99353.75
2024-02-09T05:13:45.150Z,99356.22
2024-02-09T05:16:47.700Z,99350.69
2024-02-09T05:19:52.141Z,99346.69
2024-02-09T05:22:54.771Z,99344.69
2024-02-09T05:25:57.371Z,99338.97
2024-02-09T05:29:04.111Z,99340.91
2024-02-09T05:32:07.173Z,99340.44
2024-02-09T05:35:10.168Z,99336.44
2024-02-09T05:38:12.905Z,99329.69
2024-02-09T05:41:17.139Z,99337.38
2024-02-09T05:44:19.661Z,99342.81
2024-02-09T05:47:22.221Z,99347.03
2024-02-09T05:50:33.425Z,99356.72
2024-02-09T05:53:45.190Z,99349.47
2024-02-09T05:56:50.136Z,99350.94
2024-02-09T05:59:52.682Z,99358.19
2024-02-09T06:02:55.424Z,99365.88
2024-02-09T06:05:58.011Z,99372.06
2024-02-09T06:09:03.044Z,99385.25
2024-02-09T06:12:06.110Z,99379.69
2024-02-09T06:15:11.536Z,99385.41
2024-02-09T06:18:14.202Z,99386.72
2024-02-09T06:21:20.262Z,99387.59
2024-02-09T06:24:26.058Z,99385.97
2024-02-09T06:27:28.926Z,99389.28
2024-02-09T06:30:31.774Z,99388.56
2024-02-09T06:33:34.653Z,99383.38
2024-02-09T06:36:37.264Z,99378.41
2024-02-09T06:39:39.784Z,99384.41
2024-02-09T06:42:44.841Z,99381.41
2024-02-09T06:45:48.038Z,99381.31
2024-02-09T06:48:50.720Z,99386.25
2024-02-09T06:52:11.148Z,99378.34
2024-02-09T06:55:21.390Z,99370.78
2024-02-09T06:58:25.905Z,99376.31
2024-02-09T07:01:32.613Z,99366.84
2024-02-09T07:04:37.626Z,99367.53
2024-02-09T07:07:44.963Z,99380.34
2024-02-09T07:10:50.080Z,99376.16
2024-02-09T07:13:53.105Z,99375.22
2024-02-09T07:16:55.645Z,99383.88
2024-02-09T07:19:58.304Z,99390.88
2024-02-09T07:23:00.907Z,99396.69
2024-02-09T07:26:12.186Z,99399.56
2024-02-09T07:29:14.761Z,99407.06
2024-02-09T07:32:17.366Z,99397.06
2024-02-09T07:35:20.218Z,99403.97
2024-02-09T07:38:22.859Z,99405.69
2024-02-09T07:41:25.932Z,99413.50
2024-02-09T07:44:28.529Z,99410.75
2024-02-09T07:47:31.213Z,99414.47
2024-02-09T07:50:39.162Z,99405.28
2024-02-09T07:53:41.768Z,99405.13
2024-02-09T07:56:44.632Z,99400.69
2024-02-09T07:59:48.313Z,99401.38
2024-02-09T08:02:52.736Z,99396.84
2024-02-09T08:05:58.279Z,99392.56
2024-02-09T08:09:01.999Z,99396.53
2024-02-09T08:12:05.014Z,99392.72
2024-02-09T08:15:13.455Z,99404.25
2024-02-09T08:18:16.152Z,99400.66
2024-02-09T08:21:19.799Z,99405.56
2024-02-09T08:24:25.405Z,99402.19
2024-02-09T08:27:28.230Z,99391.84
2024-02-09T08:30:33.877Z,99394.38
2024-02-09T08:33:37.729Z,99384.75
2024-02-09T08:36:40.514Z,99387.19
2024-02-09T08:39:46.827Z,99392.13
2024-02-09T08:46:18.322Z,99389.72
2024-02-09T08:49:29.855Z,99379.09
2024-02-09T08:52:32.731Z,99379.38
2024-02-09T08:55:35.247Z,99372.34
2024-02-09T08:58:37.892Z,99366.31
2024-02-09T09:01:40.561Z,99361.06
2024-02-09T09:04:43.127Z,99350.16
2024-02-09T09:07:47.333Z,99352.25
2024-02-09T09:10:50.195Z,99361.81
2024-02-09T09:13:52.819Z,99361.66
2024-02-09T09:17:03.903Z,99348.41
2024-02-09T09:20:14.832Z,99354.31
2024-02-09T09:23:19.582Z,99363.03
2024-02-09T09:26:28.683Z,99357.88
2024-02-09T09:29:33.149Z,99358.59
2024-02-09T09:32:35.766Z,99355.66
2024-02-09T09:35:38.503Z,99345.22
2024-02-09T09:38:41.132Z,99354.69
2024-02-09T09:41:43.879Z,99350.91
2024-02-09T09:44:49.484Z,99342.94
2024-02-09T09:48:01.428Z,99330.94
2024-02-09T09:51:09.927Z,99328.34
2024-02-09T09:54:14.321Z,99326.25
2024-02-09T09:57:19.379Z,99333.09
2024-02-09T10:00:23.175Z,99320.72
2024-02-09T10:03:27.187Z,99316.09
2024-02-09T10:06:30.309Z,99317.78
2024-02-09T10:09:33.060Z,99328.09
2024-02-09T10:12:35.593Z,99315.72
2024-02-09T10:18:50.615Z,99318.56
2024-02-09T10:21:57.433Z,99308.31
2024-02-09T10:25:04.250Z,99304.94
2024-02-09T10:28:07.477Z,99303.00
2024-02-09T10:31:10.362Z,99300.41
2024-02-09T10:34:16.525Z,99293.34
2024-02-09T10:37:28.579Z,99288.94
2024-02-09T10:40:35.547Z,99287.16
2024-02-09T10:43:40.742Z,99291.84
2024-02-09T10:46:45.781Z,99293.47
2024-02-09T10:49:49.364Z,99279.22
2024-02-09T10:52:54.061Z,99288.31
2024-02-09T10:56:04.538Z,99283.00
2024-02-09T10:59:08.498Z,99278.19
2024-02-09T11:02:12.086Z,99267.44
2024-02-09T11:05:18.097Z,99262.78
2024-02-09T11:08:21.596Z,99258.53
2024-02-09T11:11:28.803Z,99251.09
2024-02-09T11:14:34.217Z,99246.09
2024-02-09T11:17:43.795Z,99241.25
2024-02-09T11:20:46.334Z,99242.78
2024-02-09T11:23:49.306Z,99246.66
2024-02-09T11:26:52.078Z,99237.19
2024-02-09T11:29:54.859Z,99236.56
2024-02-09T11:33:02.488Z,99235.63
2024-02-09T11:36:05.546Z,99228.63
2024-02-09T11:39:11.207Z,99229.38
2024-02-09T11:42:17.856Z,99230.25
2024-02-09T11:45:23.438Z,99224.56
2024-02-09T11:48:38.030Z,99214.72
2024-02-09T11:51:44.164Z,99217.22
2024-02-09T11:54:49.857Z,99209.91
2024-02-09T11:57:54.226Z,99209.31
2024-02-09T12:00:59.240Z,99215.97
2024-02-09T12:04:02.059Z,99203.94
2024-02-09T12:07:05.718Z,99207.91
2024-02-09T12:10:08.951Z,99199.34
2024-02-09T12:13:13.086Z,99200.47
2024-02-09T12:16:19.274Z,99196.22
2024-02-09T12:19:22.252Z,99208.34
2024-02-09T12:26:15.603Z,99208.75
2024-02-09T12:29:21.526Z,99209.38
2024-02-09T12:32:28.573Z,99210.84
2024-02-09T12:35:38.322Z,99194.09
2024-02-09T12:38:46.991Z,99197.78
2024-02-09T13:12:15.394Z,99183.13
2024-02-09T13:16:22.713Z,99178.84
2024-02-09T13:19:25.507Z,99170.19
2024-02-09T13:22:28.177Z,99173.69
2024-02-09T13:43:04.950Z,99162.19
2024-02-09T13:46:09.910Z,99157.91
2024-02-09T13:49:13.858Z,99165.47
2024-02-09T13:52:17.326Z,99165.44
2024-02-09T13:55:22.757Z,99151.22
2024-02-09T13:58:28.249Z,99159.53
2024-02-09T14:01:30.998Z,99156.75
2024-02-09T14:04:33.587Z,99159.66
2024-02-09T14:07:40.095Z,99157.44
2024-02-09T14:10:45.149Z,99153.75
2024-02-09T14:13:47.897Z,99153.16
2024-02-09T14:16:51.490Z,99163.81
2024-02-09T14:19:54.172Z,99162.72
2024-02-09T14:22:56.807Z,99166.22
2024-02-09T14:25:59.625Z,99164.38
2024-02-09T14:29:04.196Z,99155.53
2024-02-09T14:32:11.013Z,99168.28
2024-02-09T14:35:14.156Z,99168.28
2024-02-09T14:38:17.255Z,99174.22
2024-02-09T14:41:20.300Z,99160.38
2024-02-09T14:44:23.007Z,99150.56
2024-02-09T14:47:26.759Z,99153.91
2024-02-09T14:50:30.038Z,99153.91
2024-02-09T14:53:35.211Z,99150.38
2024-02-09T14:56:48.727Z,99145.94
2024-02-09T14:59:58.480Z,99145.56
2024-02-09T15:03:02.788Z,99145.31
2024-02-09T15:06:14.212Z,99141.81
2024-02-09T15:09:19.692Z,99144.56
2024-02-09T15:12:22.249Z,99140.31
2024-02-09T15:15:27.252Z,99138.44
2024-02-09T15:18:29.979Z,99142.25
2024-02-09T15:21:34.062Z,99140.56
2024-02-09T15:24:36.898Z,99137.63
2024-02-09T15:27:39.446Z,99134.63
2024-02-09T15:30:42.014Z,99139.56
2024-02-09T15:33:45.084Z,99136.94
2024-02-09T15:36:47.826Z,99143.59
2024-02-09T15:39:50.476Z,99135.81
2024-02-09T15:42:52.998Z,99135.38
2024-02-09T15:45:58.224Z,99137.00
2024-02-09T15:49:00.789Z,99138.50
2024-02-09T15:52:03.549Z,99133.69
2024-02-09T15:55:09.257Z,99137.00
2024-02-09T15:58:11.949Z,99138.09
2024-02-09T16:01:14.591Z,99150.78
2024-02-09T16:04:17.600Z,99150.19
2024-02-09T16:07:20.349Z,99156.06
2024-02-09T16:10:23.908Z,99151.28
2024-02-09T16:13:28.924Z,99156.19
2024-02-09T16:16:32.468Z,99161.34
2024-02-09T16:19:35.630Z,99166.72
2024-02-09T16:22:38.255Z,99166.47
2024-02-09T16:25:44.537Z,99165.66
2024-02-09T16:28:49.915Z,99164.16
2024-02-09T16:31:52.761Z,99162.59
2024-02-09T16:34:58.789Z,99165.53
2024-02-09T16:38:01.604Z,99168.50
2024-02-09T16:41:04.296Z,99170.63
2024-02-09T16:44:07.258Z,99166.59
2024-02-09T16:47:09.945Z,99162.91
2024-02-09T16:50:13.115Z,99168.75
2024-02-09T16:53:17.421Z,99163.88
2024-02-09T16:56:20.363Z,99161.06
2024-02-09T16:59:23.081Z,99158.28
2024-02-09T17:02:26.277Z,99157.41
2024-02-09T17:05:29.852Z,99159.03
2024-02-09T17:08:32.496Z,99158.88
2024-02-09T17:11:35.061Z,99153.16
2024-02-09T17:14:37.568Z,99152.50
2024-02-09T17:17:40.102Z,99149.00
2024-02-09T17:20:42.687Z,99152.50
2024-02-09T17:23:47.202Z,99154.47
2024-02-09T17:26:49.718Z,99153.44
2024-02-09T17:29:52.269Z,99155.44
2024-02-09T17:32:54.821Z,99158.97
2024-02-09T17:35:57.477Z,99159.69
2024-02-09T17:39:00.022Z,99158.34
2024-02-09T17:42:05.348Z,99158.00
2024-02-09T17:45:08.772Z,99146.50
2024-02-09T17:48:12.116Z,99163.53
2024-02-09T17:51:15.671Z,99156.81
2024-02-09T17:54:19.080Z,99155.25
2024-02-09T17:57:21.785Z,99167.38
2024-02-09T18:00:25.278Z,99151.56
2024-02-09T18:03:28.011Z,99155.78
2024-02-09T18:06:32.469Z,99168.00
2024-02-09T18:09:35.039Z,99152.69
2024-02-09T18:12:37.597Z,99149.75
2024-02-09T18:15:40.693Z,99149.53
2024-02-09T18:18:43.879Z,99151.00
2024-02-09T18:21:46.904Z,99157.19
